createdAt,value
2019-02-01T00:00:35.269Z,92483.36
2019-02-01T00:03:04.549Z,92485.92
2019-02-01T00:05:33.175Z,92484.37
2019-02-01T00:08:01.864Z,92476.97
2019-02-01T00:10:30.472Z,92461.72
2019-02-01T00:12:59.167Z,92460.45
2019-02-01T00:15:27.781Z,92458.06
2019-02-01T00:18:00.730Z,92458.36
2019-02-01T00:20:26.807Z,92467.67
2019-02-01T00:22:55.484Z,92459.12
2019-02-01T00:25:24.122Z,92464.46
2019-02-01T00:27:52.818Z,92478.02
2019-02-01T00:30:21.741Z,92467.28
2019-02-01T00:32:50.437Z,92453.97
2019-02-01T00:35:19.103Z,92452.55
2019-02-01T00:37:47.722Z,92457.59
2019-02-01T00:40:21.020Z,92460.12
2019-02-01T00:42:49.637Z,92461.65
2019-02-01T00:45:19.103Z,92459.77
2019-02-01T00:47:47.767Z,92453.70
2019-02-01T00:50:17.394Z,92448.32
2019-02-01T00:52:46.065Z,92436.84
2019-02-01T00:55:19.300Z,92432.59
2019-02-01T00:57:47.979Z,92431.16
2019-02-01T01:00:25.339Z,92429.33
2019-02-01T01:02:54.609Z,92424.13
2019-02-01T01:05:24.144Z,92424.11
2019-02-01T01:07:52.942Z,92411.52
2019-02-01T01:10:27.663Z,92409.86
2019-02-01T01:12:56.756Z,92410.87
2019-02-01T01:15:25.552Z,92415.19
2019-02-01T01:17:54.334Z,92400.44
2019-02-01T01:20:22.955Z,92412.91
2019-02-01T01:22:52.017Z,92413.31
2019-02-01T01:25:22.858Z,92407.25
2019-02-01T01:27:51.776Z,92401.93
2019-02-01T01:30:21.752Z,92407.03
2019-02-01T01:32:50.470Z,92400.85
2019-02-01T01:35:19.944Z,92397.78
2019-02-01T01:37:48.916Z,92398.34
2019-02-01T01:40:19.499Z,92406.91
2019-02-01T01:42:48.473Z,92404.48
2019-02-01T01:45:19.251Z,92406.11
2019-02-01T01:47:48.710Z,92407.49
2019-02-01T01:50:17.815Z,92396.36
2019-02-01T01:52:46.615Z,92408.52
2019-02-01T01:55:15.388Z,92413.61
2019-02-01T01:57:43.999Z,92429.78
2019-02-01T02:00:30.441Z,92425.04
2019-02-01T02:02:59.120Z,92421.41
2019-02-01T02:05:27.744Z,92416.04
2019-02-01T02:07:56.442Z,92402.14
2019-02-01T02:10:25.228Z,92401.09
2019-02-01T02:12:54.150Z,92409.98
2019-02-01T02:15:23.721Z,92411.48
2019-02-01T02:17:52.429Z,92403.05
2019-02-01T02:20:23.326Z,92400.85
2019-02-01T02:22:52.009Z,92415.63
2019-02-01T02:25:20.777Z,92409.01
2019-02-01T02:27:49.390Z,92409.16
2019-02-01T02:30:23.570Z,92413.89
2019-02-01T02:32:52.578Z,92419.31
2019-02-01T02:35:21.221Z,92417.55
2019-02-01T02:37:49.830Z,92423.88
2019-02-01T02:40:20.334Z,92434.88
2019-02-01T02:42:49.120Z,92441.64
2019-02-01T02:45:18.830Z,92441.92
2019-02-01T02:47:47.566Z,92443.33
2019-02-01T02:50:20.960Z,92442.27
2019-02-01T02:52:50.191Z,92448.45
2019-02-01T02:55:20.260Z,92442.32
2019-02-01T02:57:49.674Z,92442.75
2019-02-01T03:00:29.524Z,92454.58
2019-02-01T03:03:00.166Z,92456.05
2019-02-01T03:05:29.233Z,92455.47
2019-02-01T03:07:58.128Z,92457.52
2019-02-01T03:10:26.801Z,92445.51
2019-02-01T03:12:55.429Z,92453.78
2019-02-01T03:15:24.922Z,92432.63
2019-02-01T03:17:53.733Z,92426.75
2019-02-01T03:20:23.968Z,92435.70
2019-02-01T03:22:52.629Z,92435.91
2019-02-01T03:25:21.291Z,92451.95
2019-02-01T03:27:50.090Z,92451.88
2019-02-01T03:30:24.498Z,92441.39
2019-02-01T03:32:53.297Z,92440.67
2019-02-01T03:35:22.014Z,92435.62
2019-02-01T03:37:51.180Z,92446.24
2019-02-01T03:40:21.254Z,92440.83
2019-02-01T03:42:50.029Z,92456.84
2019-02-01T03:45:20.584Z,92442.97
2019-02-01T03:47:49.333Z,92453.39
2019-02-01T03:50:19.898Z,92457.67
2019-02-01T03:52:48.528Z,92454.36
2019-02-01T03:55:19.107Z,92456.95
2019-02-01T03:57:47.753Z,92455.91
2019-02-01T04:00:21.357Z,92453.17
2019-02-01T04:02:50.150Z,92456.63
2019-02-01T04:05:18.834Z,92462.89
2019-02-01T04:07:47.440Z,92456.36
2019-02-01T04:10:18.046Z,92462.19
2019-02-01T04:12:46.842Z,92458.05
2019-02-01T04:15:18.361Z,92455.06
2019-02-01T04:17:47.035Z,92464.09
2019-02-01T04:20:17.875Z,92452.37
2019-02-01T04:22:46.503Z,92444.19
2019-02-01T04:25:15.781Z,92447.92
2019-02-01T04:27:44.548Z,92452.12
2019-02-01T04:30:15.940Z,92462.66
2019-02-01T04:32:44.619Z,92468.19
2019-02-01T04:35:13.885Z,92470.09
2019-02-01T04:37:42.652Z,92466.79
2019-02-01T04:40:15.265Z,92466.47
2019-02-01T04:42:44.643Z,92465.41
2019-02-01T04:45:16.137Z,92460.02
2019-02-01T04:47:44.758Z,92468.62
2019-02-01T04:50:13.459Z,92464.39
2019-02-01T04:52:42.088Z,92464.11
2019-02-01T04:55:10.976Z,92461.27
2019-02-01T04:57:39.638Z,92457.25
2019-02-01T05:00:20.069Z,92450.93
2019-02-01T05:02:48.708Z,92450.41
2019-02-01T05:05:17.369Z,92453.18
2019-02-01T05:07:46.392Z,92450.98
2019-02-01T05:10:17.346Z,92446.56
2019-02-01T05:12:46.852Z,92449.34
2019-02-01T05:15:17.689Z,92451.02
2019-02-01T05:17:46.577Z,92440.88
2019-02-01T05:20:20.615Z,92442.32
2019-02-01T05:22:47.841Z,92445.30
2019-02-01T05:25:16.535Z,92441.56
2019-02-01T05:27:45.421Z,92447.72
2019-02-01T05:30:18.794Z,92452.47
2019-02-01T05:32:47.502Z,92457.97
2019-02-01T05:35:18.236Z,92457.22
2019-02-01T05:37:47.165Z,92452.27
2019-02-01T05:40:15.917Z,92453.56
2019-02-01T05:42:44.714Z,92456.22
2019-02-01T05:45:15.718Z,92447.67
2019-02-01T05:47:44.432Z,92445.13
2019-02-01T05:50:27.845Z,92446.99
2019-02-01T05:52:45.913Z,92452.48
2019-02-01T05:55:15.099Z,92448.75
2019-02-01T05:57:43.808Z,92453.85
2019-02-01T06:00:15.645Z,92458.70
2019-02-01T06:02:44.335Z,92464.43
2019-02-01T06:05:13.154Z,92465.08
2019-02-01T06:07:41.915Z,92461.59
2019-02-01T06:10:16.234Z,92464.43
2019-02-01T06:12:45.012Z,92452.00
2019-02-01T06:15:14.433Z,92468.33
2019-02-01T06:17:43.118Z,92473.36
2019-02-01T06:20:14.874Z,92468.73
2019-02-01T06:22:43.494Z,92456.08
2019-02-01T06:25:13.382Z,92451.67
2019-02-01T06:27:42.060Z,92441.86
2019-02-01T06:30:16.060Z,92442.69
2019-02-01T06:32:44.751Z,92458.13
2019-02-01T06:35:15.992Z,92463.05
2019-02-01T06:37:44.682Z,92459.56
2019-02-01T06:40:21.314Z,92464.97
2019-02-01T06:42:50.044Z,92460.47
2019-02-01T06:45:19.037Z,92469.35
2019-02-01T06:47:47.816Z,92464.78
2019-02-01T06:50:33.209Z,92468.38
2019-02-01T06:53:02.613Z,92471.40
2019-02-01T06:55:31.396Z,92470.59
2019-02-01T06:58:00.091Z,92481.13
2019-02-01T07:00:31.078Z,92484.80
2019-02-01T07:03:00.450Z,92472.47
2019-02-01T07:05:30.745Z,92478.34
2019-02-01T07:08:01.080Z,92480.95
2019-02-01T07:10:37.651Z,92484.15
2019-02-01T07:13:25.061Z,92461.64
2019-02-01T07:15:55.662Z,92458.41
2019-02-01T07:18:25.937Z,92459.53
2019-02-01T07:21:04.245Z,92471.28
2019-02-01T07:23:47.567Z,92470.72
2019-02-01T07:26:23.622Z,92455.93
2019-02-01T07:28:53.858Z,92448.16
2019-02-01T07:31:24.174Z,92443.62
2019-02-01T07:33:56.575Z,92447.47
2019-02-01T07:36:25.334Z,92430.20
2019-02-01T07:38:54.125Z,92432.63
2019-02-01T07:41:22.808Z,92445.41
2019-02-01T07:43:51.599Z,92459.41
2019-02-01T07:46:20.285Z,92461.44
2019-02-01T07:48:49.087Z,92466.33
2019-02-01T07:51:17.758Z,92460.33
2019-02-01T07:53:46.428Z,92454.13
2019-02-01T07:56:15.214Z,92443.65
2019-02-01T07:58:44.020Z,92444.48
2019-02-01T08:01:12.719Z,92442.63
2019-02-01T08:03:41.403Z,92427.16
2019-02-01T08:06:10.188Z,92431.43
2019-02-01T08:08:38.979Z,92430.23
2019-02-01T08:11:07.779Z,92403.31
2019-02-01T08:13:36.561Z,92403.80
2019-02-01T08:16:05.347Z,92392.39
2019-02-01T08:18:35.696Z,92393.16
2019-02-01T08:21:04.454Z,92398.05
2019-02-01T08:23:33.249Z,92401.34
2019-02-01T08:26:01.929Z,92397.56
2019-02-01T08:28:30.726Z,92391.70
2019-02-01T08:30:59.510Z,92398.53
2019-02-01T08:33:28.193Z,92425.91
2019-02-01T08:35:56.996Z,92410.78
2019-02-01T08:38:25.668Z,92415.10
2019-02-01T08:40:54.354Z,92410.48
2019-02-01T08:43:23.069Z,92414.47
2019-02-01T08:45:51.832Z,92425.42
2019-02-01T08:48:20.528Z,92428.52
2019-02-01T08:50:49.718Z,92406.73
2019-02-01T08:53:18.419Z,92425.39
2019-02-01T08:55:47.196Z,92411.59
2019-02-01T08:58:15.875Z,92407.86
2019-02-01T09:00:44.564Z,92398.41
2019-02-01T09:03:13.391Z,92396.56
2019-02-01T09:05:42.143Z,92397.25
2019-02-01T09:08:10.841Z,92392.03
2019-02-01T09:10:39.515Z,92392.52
2019-02-01T09:13:08.300Z,92396.05
2019-02-01T09:15:36.911Z,92396.25
2019-02-01T09:18:05.905Z,92405.87
2019-02-01T09:20:34.581Z,92394.89
2019-02-01T09:23:03.277Z,92401.73
2019-02-01T09:25:32.028Z,92402.48
2019-02-01T09:28:00.846Z,92409.76
2019-02-01T09:30:29.620Z,92417.35
2019-02-01T09:32:58.305Z,92412.65
2019-02-01T09:35:27.300Z,92407.86
2019-02-01T09:37:55.993Z,92396.66
2019-02-01T09:40:25.003Z,92388.75
2019-02-01T09:42:53.667Z,92380.84
2019-02-01T09:45:22.508Z,92371.78
2019-02-01T09:47:51.257Z,92368.39
2019-02-01T09:50:23.185Z,92361.98
2019-02-01T09:52:51.589Z,92372.13
2019-02-01T09:55:20.373Z,92371.30
2019-02-01T09:57:49.205Z,92378.77
2019-02-01T10:00:24.208Z,92380.46
2019-02-01T10:02:52.987Z,92363.37
2019-02-01T10:05:22.288Z,92340.55
2019-02-01T10:07:51.171Z,92354.98
2019-02-01T10:10:22.194Z,92352.58
2019-02-01T10:12:50.920Z,92346.66
2019-02-01T10:15:27.365Z,92365.64
2019-02-01T10:17:56.784Z,92364.23
2019-02-01T10:20:25.572Z,92353.74
2019-02-01T10:22:54.362Z,92348.84
2019-02-01T10:25:23.256Z,92341.66
2019-02-01T10:27:52.037Z,92331.77
2019-02-01T10:30:27.889Z,92320.77
2019-02-01T10:32:56.677Z,92300.52
2019-02-01T10:35:25.334Z,92312.36
2019-02-01T10:37:54.145Z,92307.19
2019-02-01T10:40:22.844Z,92282.84
2019-02-01T10:42:51.655Z,92283.53
2019-02-01T10:45:20.418Z,92277.98
2019-02-01T10:47:53.366Z,92265.23
2019-02-01T10:50:24.493Z,92260.45
2019-02-01T10:52:53.440Z,92266.52
2019-02-01T10:55:25.554Z,92266.03
2019-02-01T10:57:54.939Z,92259.81
2019-02-01T11:00:27.997Z,92265.02
2019-02-01T11:02:56.891Z,92254.16
2019-02-01T11:05:28.137Z,92237.86
2019-02-01T11:07:56.838Z,92239.63
2019-02-01T11:10:25.516Z,92249.66
2019-02-01T11:12:54.300Z,92236.23
2019-02-01T11:15:22.984Z,92229.91
2019-02-01T11:17:51.773Z,92220.95
2019-02-01T11:20:24.871Z,92222.37
2019-02-01T11:22:53.667Z,92210.87
2019-02-01T11:25:22.866Z,92215.31
2019-02-01T11:27:51.643Z,92211.44
2019-02-01T11:30:25.032Z,92203.41
2019-02-01T11:32:54.238Z,92207.24
2019-02-01T11:35:24.353Z,92203.23
2019-02-01T11:37:53.146Z,92187.61
2019-02-01T11:40:25.683Z,92201.09
2019-02-01T11:42:54.712Z,92190.36
2019-02-01T11:45:23.424Z,92182.80
2019-02-01T11:47:55.182Z,92190.17
2019-02-01T11:50:25.499Z,92189.30
2019-02-01T11:52:54.170Z,92173.33
2019-02-01T11:55:22.963Z,92158.52
2019-02-01T11:57:51.646Z,92176.94
2019-02-01T12:00:24.432Z,92156.98
2019-02-01T12:02:53.431Z,92163.33
2019-02-01T12:05:22.114Z,92145.81
2019-02-01T12:07:51.319Z,92128.94
2019-02-01T12:10:25.218Z,92126.98
2019-02-01T12:12:53.905Z,92099.00
2019-02-01T12:15:22.694Z,92117.67
2019-02-01T12:17:51.373Z,92109.46
2019-02-01T12:20:22.622Z,92093.88
2019-02-01T12:22:59.897Z,92092.73
2019-02-01T12:25:22.662Z,92091.34
2019-02-01T12:27:51.446Z,92073.34
2019-02-01T12:30:23.415Z,92072.63
2019-02-01T12:32:52.106Z,92059.48
2019-02-01T12:35:20.785Z,92083.14
2019-02-01T12:37:49.584Z,92065.75
2019-02-01T12:40:18.405Z,92064.52
2019-02-01T12:42:50.168Z,92051.05
2019-02-01T12:45:23.410Z,92043.27
2019-02-01T12:47:52.202Z,92049.23
2019-02-01T12:50:21.305Z,92051.99
2019-02-01T12:52:50.331Z,92041.61
2019-02-01T12:55:19.596Z,92024.48
2019-02-01T12:57:48.277Z,92026.77
2019-02-01T13:00:37.060Z,92026.20
2019-02-01T13:03:07.769Z,92020.41
2019-02-01T13:05:39.738Z,92018.89
2019-02-01T13:08:08.933Z,92022.42
2019-02-01T13:10:38.027Z,92010.58
2019-02-01T13:13:07.036Z,92002.84
2019-02-01T13:15:35.713Z,92004.18
2019-02-01T13:18:06.769Z,92000.28
2019-02-01T13:20:35.336Z,92004.55
2019-02-01T13:23:04.360Z,91993.91
2019-02-01T13:25:33.026Z,91991.31
2019-02-01T13:28:01.710Z,91986.16
2019-02-01T13:30:33.154Z,91981.59
2019-02-01T13:33:03.072Z,91983.15
2019-02-01T13:35:32.054Z,91967.17
2019-02-01T13:38:00.957Z,91956.20
2019-02-01T13:40:29.633Z,91956.47
2019-02-01T13:42:58.428Z,91958.03
2019-02-01T13:45:27.296Z,91956.91
2019-02-01T13:47:56.224Z,91942.06
2019-02-01T13:50:25.214Z,91938.44
2019-02-01T13:52:53.995Z,91932.48
2019-02-01T13:55:25.642Z,91923.97
2019-02-01T13:57:55.366Z,91932.62
2019-02-01T14:00:27.525Z,91926.47
2019-02-01T14:02:57.956Z,91913.73
2019-02-01T14:05:26.990Z,91921.17
2019-02-01T14:08:02.294Z,91912.53
2019-02-01T14:10:28.443Z,91904.91
2019-02-01T14:12:57.691Z,91898.01
2019-02-01T14:15:29.809Z,91904.52
2019-02-01T14:17:59.939Z,91885.56
2019-02-01T14:20:28.916Z,91874.09
2019-02-01T14:23:15.438Z,91862.06
2019-02-01T14:25:45.866Z,91878.83
2019-02-01T14:28:14.625Z,91872.30
2019-02-01T14:30:45.222Z,91875.92
2019-02-01T14:33:15.202Z,91882.10
2019-02-01T14:35:48.012Z,91868.77
2019-02-01T14:38:16.036Z,91856.34
2019-02-01T14:40:44.818Z,91861.77
2019-02-01T14:43:15.497Z,91854.08
2019-02-01T14:45:44.751Z,91859.91
2019-02-01T14:48:15.093Z,91861.58
2019-02-01T14:50:44.299Z,91852.75
2019-02-01T14:53:13.226Z,91845.66
2019-02-01T14:55:43.701Z,91860.06
2019-02-01T14:58:15.400Z,91857.92
2019-02-01T15:00:44.411Z,91854.20
2019-02-01T15:03:13.366Z,91844.83
2019-02-01T15:05:42.115Z,91836.16
2019-02-01T15:08:10.826Z,91837.67
2019-02-01T15:10:39.501Z,91850.42
2019-02-01T15:13:08.274Z,91846.79
2019-02-01T15:15:37.016Z,91834.31
2019-02-01T15:18:06.079Z,91840.05
2019-02-01T15:20:35.253Z,91834.65
2019-02-01T15:23:04.151Z,91832.69
2019-02-01T15:25:33.264Z,91824.50
2019-02-01T15:28:01.873Z,91828.63
2019-02-01T15:30:33.871Z,91822.56
2019-02-01T15:33:01.460Z,91803.72
2019-02-01T15:35:30.140Z,91813.59
2019-02-01T15:37:59.840Z,91815.48
2019-02-01T15:40:33.557Z,91808.52
2019-02-01T15:43:02.248Z,91792.55
2019-02-01T15:45:30.931Z,91800.27
2019-02-01T15:47:59.613Z,91795.98
2019-02-01T15:50:28.401Z,91783.52
2019-02-01T15:52:58.730Z,91777.23
2019-02-01T15:55:28.958Z,91784.13
2019-02-01T15:57:57.946Z,91787.11
2019-02-01T16:00:41.684Z,91787.33
2019-02-01T16:03:12.037Z,91787.55
2019-02-01T16:05:41.205Z,91782.21
2019-02-01T16:08:10.205Z,91780.95
2019-02-01T16:10:38.846Z,91780.41
2019-02-01T16:13:07.919Z,91770.31
2019-02-01T16:15:36.675Z,91764.19
2019-02-01T16:18:05.976Z,91776.37
2019-02-01T16:20:34.755Z,91763.98
2019-02-01T16:23:03.554Z,91773.05
2019-02-01T16:25:32.337Z,91776.44
2019-02-01T16:28:01.074Z,91783.91
2019-02-01T16:30:32.477Z,91786.03
2019-02-01T16:33:01.371Z,91782.57
2019-02-01T16:35:30.467Z,91789.65
2019-02-01T16:37:59.837Z,91776.83
2019-02-01T16:40:28.866Z,91776.59
2019-02-01T16:42:57.746Z,91780.28
2019-02-01T16:45:28.217Z,91772.00
2019-02-01T16:47:57.105Z,91779.84
2019-02-01T16:50:26.882Z,91764.48
2019-02-01T16:52:56.160Z,91770.22
2019-02-01T16:55:33.160Z,91777.83
2019-02-01T16:58:01.959Z,91776.17
2019-02-01T17:00:33.716Z,91766.05
2019-02-01T17:03:02.967Z,91764.14
2019-02-01T17:05:31.701Z,91769.27
2019-02-01T17:08:00.485Z,91762.81
2019-02-01T17:10:34.760Z,91755.17
2019-02-01T17:13:03.596Z,91760.11
2019-02-01T17:15:32.585Z,91747.30
2019-02-01T17:18:02.105Z,91750.35
2019-02-01T17:20:33.161Z,91754.39
2019-02-01T17:23:02.032Z,91754.67
2019-02-01T17:25:30.883Z,91752.37
2019-02-01T17:28:01.064Z,91756.85
2019-02-01T17:30:38.752Z,91755.16
2019-02-01T17:33:07.834Z,91755.57
2019-02-01T17:35:36.899Z,91752.20
2019-02-01T17:38:05.951Z,91746.73
2019-02-01T17:40:37.580Z,91747.25
2019-02-01T17:43:06.993Z,91758.25
2019-02-01T17:45:35.998Z,91745.19
2019-02-01T17:48:07.020Z,91748.05
2019-02-01T17:50:36.333Z,91747.08
2019-02-01T17:53:06.645Z,91742.28
2019-02-01T17:55:38.566Z,91744.20
2019-02-01T17:58:07.584Z,91751.22
2019-02-01T18:00:43.682Z,91749.54
2019-02-01T18:03:14.126Z,91750.30
2019-02-01T18:05:46.004Z,91742.42
2019-02-01T18:08:15.040Z,91739.08
2019-02-01T18:10:43.856Z,91728.09
2019-02-01T18:13:12.624Z,91732.98
2019-02-01T18:15:41.329Z,91734.38
2019-02-01T18:18:11.538Z,91745.02
2019-02-01T18:20:42.993Z,91729.97
2019-02-01T18:23:11.802Z,91734.77
2019-02-01T18:25:41.392Z,91732.05
2019-02-01T18:28:10.205Z,91731.59
2019-02-01T18:30:39.056Z,91722.53
2019-02-01T18:33:07.958Z,91727.70
2019-02-01T18:35:38.443Z,91729.32
2019-02-01T18:38:19.804Z,91703.83
2019-02-01T18:40:40.596Z,91721.36
2019-02-01T18:43:12.117Z,91702.48
2019-02-01T18:45:41.222Z,91705.86
2019-02-01T18:48:13.376Z,91703.34
2019-02-01T18:50:43.151Z,91696.17
2019-02-01T18:53:12.228Z,91688.13
2019-02-01T18:55:41.003Z,91702.12
2019-02-01T18:58:09.661Z,91688.39
2019-02-01T19:00:51.095Z,91690.91
2019-02-01T19:03:12.246Z,91677.73
2019-02-01T19:05:42.181Z,91693.59
2019-02-01T19:08:12.041Z,91678.97
2019-02-01T19:10:41.001Z,91671.63
2019-02-01T19:13:10.077Z,91673.05
2019-02-01T19:15:38.874Z,91666.52
2019-02-01T19:18:10.234Z,91673.30
2019-02-01T19:20:39.014Z,91672.48
2019-02-01T19:23:08.399Z,91667.88
2019-02-01T19:25:45.008Z,91659.00
2019-02-01T19:28:08.130Z,91659.14
2019-02-01T19:30:39.584Z,91665.96
2019-02-01T19:33:09.109Z,91656.20
2019-02-01T19:35:40.972Z,91662.57
2019-02-01T19:38:12.197Z,91653.89
2019-02-01T19:40:41.639Z,91660.51
2019-02-01T19:43:10.829Z,91653.16
2019-02-01T19:45:40.440Z,91646.84
2019-02-01T19:48:15.974Z,91645.69
2019-02-01T19:50:47.887Z,91654.75
2019-02-01T19:53:17.569Z,91641.05
2019-02-01T19:55:56.998Z,91633.98
2019-02-01T19:58:21.711Z,91649.25
2019-02-01T20:00:50.455Z,91650.88
2019-02-01T20:03:20.942Z,91637.65
2019-02-01T20:05:49.969Z,91644.95
2019-02-01T20:08:20.616Z,91631.71
2019-02-01T20:10:49.621Z,91638.01
2019-02-01T20:13:18.716Z,91654.13
2019-02-01T20:15:48.016Z,91645.66
2019-02-01T20:18:16.999Z,91641.66
2019-02-01T20:20:46.097Z,91642.66
2019-02-01T20:23:14.992Z,91635.48
2019-02-01T20:25:43.758Z,91637.02
2019-02-01T20:28:12.546Z,91635.39
2019-02-01T20:30:42.154Z,91624.73
2019-02-01T20:33:11.400Z,91626.38
2019-02-01T20:35:40.142Z,91646.75
2019-02-01T20:38:10.362Z,91632.39
2019-02-01T20:40:44.337Z,91625.61
2019-02-01T20:43:12.149Z,91631.20
2019-02-01T20:45:42.681Z,91635.28
2019-02-01T20:48:12.182Z,91624.28
2019-02-01T20:50:40.967Z,91633.14
2019-02-01T20:53:09.847Z,91622.11
2019-02-01T20:55:38.852Z,91607.03
2019-02-01T20:58:07.631Z,91612.46
2019-02-01T21:00:36.411Z,91616.16
2019-02-01T21:03:06.052Z,91608.23
2019-02-01T21:05:35.009Z,91596.81
2019-02-01T21:08:03.765Z,91612.05
2019-02-01T21:10:32.502Z,91590.92
2019-02-01T21:13:13.635Z,91577.08
2019-02-01T21:15:34.361Z,91584.00
2019-02-01T21:18:03.259Z,91577.05
2019-02-01T21:20:32.135Z,91566.64
2019-02-01T21:23:00.817Z,91575.49
2019-02-01T21:25:29.722Z,91565.16
2019-02-01T21:27:58.386Z,91558.47
2019-02-01T21:30:35.479Z,91563.73
2019-02-01T21:33:05.244Z,91570.09
2019-02-01T21:35:33.886Z,91576.34
2019-02-01T21:38:02.585Z,91574.47
2019-02-01T21:40:31.290Z,91576.48
2019-02-01T21:42:59.926Z,91566.92
2019-02-01T21:45:28.713Z,91559.82
2019-02-01T21:47:57.491Z,91561.34
2019-02-01T21:50:31.263Z,91559.66
2019-02-01T21:53:01.657Z,91562.33
2019-02-01T21:55:30.650Z,91559.91
2019-02-01T21:57:59.400Z,91568.92
2019-02-01T22:00:33.117Z,91572.03
2019-02-01T22:03:01.857Z,91552.86
2019-02-01T22:05:32.265Z,91551.98
2019-02-01T22:08:00.961Z,91569.30
2019-02-01T22:10:31.721Z,91572.53
2019-02-01T22:13:00.524Z,91562.28
2019-02-01T22:15:29.540Z,91576.69
2019-02-01T22:17:58.167Z,91572.64
2019-02-01T22:20:29.777Z,91568.67
2019-02-01T22:22:58.661Z,91585.45
2019-02-01T22:25:27.549Z,91593.85
2019-02-01T22:27:56.204Z,91582.12
2019-02-01T22:30:29.871Z,91584.77
2019-02-01T22:32:58.572Z,91582.84
2019-02-01T22:35:27.302Z,91597.67
2019-02-01T22:37:55.962Z,91600.79
2019-02-01T22:40:29.893Z,91591.38
2019-02-01T22:42:58.603Z,91604.91
2019-02-01T22:45:27.238Z,91611.11
2019-02-01T22:47:55.957Z,91612.28
2019-02-01T22:50:26.345Z,91611.81
2019-02-01T22:52:55.341Z,91599.91
2019-02-01T22:55:24.016Z,91598.62
2019-02-01T22:57:52.809Z,91603.59
2019-02-01T23:00:56.052Z,91607.09
2019-02-01T23:03:23.557Z,91600.97
2019-02-01T23:05:52.297Z,91595.22
2019-02-01T23:08:21.037Z,91603.41
2019-02-01T23:10:49.721Z,91590.30
2019-02-01T23:13:18.520Z,91589.89
2019-02-01T23:15:47.196Z,91582.92
2019-02-01T23:18:15.980Z,91590.55
2019-02-01T23:20:44.674Z,91591.50
2019-02-01T23:23:13.461Z,91593.36
2019-02-01T23:25:42.149Z,91588.90
2019-02-01T23:28:10.836Z,91585.55
2019-02-01T23:30:41.670Z,91589.07
2019-02-01T23:33:10.356Z,91585.08
2019-02-01T23:35:39.026Z,91582.05
2019-02-01T23:38:07.700Z,91582.86
2019-02-01T23:40:36.372Z,91585.45
2019-02-01T23:43:05.313Z,91589.10
2019-02-01T23:45:34.385Z,91594.74
2019-02-01T23:48:03.082Z,91586.42
2019-02-01T23:50:31.693Z,91600.84
2019-02-01T23:53:00.357Z,91603.53
2019-02-01T23:55:29.027Z,91606.22
2019-02-01T23:57:57.725Z,91618.77
